createdAt,value
2022-08-11T00:02:35.090Z,70.70
2022-08-11T00:05:08.558Z,70.80
2022-08-11T00:07:43.269Z,70.90
2022-08-11T00:10:13.173Z,71.00
2022-08-11T00:12:42.639Z,71.80
2022-08-11T00:15:13.685Z,71.10
2022-08-11T00:17:42.853Z,71.20
2022-08-11T00:20:16.615Z,71.30
2022-08-11T00:22:48.384Z,71.30
2022-08-11T00:25:18.877Z,71.40
2022-08-11T00:27:48.973Z,71.50
2022-08-11T00:30:19.030Z,71.50
2022-08-11T00:32:56.351Z,71.60
2022-08-11T00:35:56.096Z,71.60
2022-08-11T00:38:18.780Z,71.70
2022-08-11T00:40:56.079Z,71.70
2022-08-11T00:43:38.152Z,71.70
2022-08-11T00:46:22.931Z,71.70
2022-08-11T00:49:11.983Z,71.70
2022-08-11T00:51:59.802Z,71.80
2022-08-11T00:55:01.799Z,71.80
2022-08-11T00:58:02.585Z,72.60
2022-08-11T01:00:35.491Z,72.00
2022-08-11T01:03:31.698Z,72.00
2022-08-11T01:06:22.816Z,72.00
2022-08-11T01:09:22.999Z,72.00
2022-08-11T01:12:36.425Z,72.10
2022-08-11T01:15:41.408Z,72.20
2022-08-11T01:19:03.079Z,72.30
2022-08-11T01:22:03.822Z,72.30
2022-08-11T01:24:57.994Z,72.30
2022-08-11T01:27:54.244Z,72.40
2022-08-11T01:30:55.940Z,72.50
2022-08-11T01:34:00.380Z,72.50
2022-08-11T01:37:02.115Z,72.60
2022-08-11T01:40:15.686Z,72.60
2022-08-11T01:43:42.792Z,72.70
2022-08-11T01:46:17.379Z,72.70
2022-08-11T01:50:05.127Z,72.80
2022-08-11T01:52:09.268Z,72.80
2022-08-11T01:54:44.721Z,72.90
2022-08-11T01:57:28.609Z,72.90
2022-08-11T02:00:08.769Z,72.90
2022-08-11T02:02:47.510Z,72.90
2022-08-11T02:05:52.537Z,73.00
2022-08-11T02:08:36.716Z,73.10
2022-08-11T02:11:30.435Z,73.10
2022-08-11T02:14:03.899Z,73.10
2022-08-11T02:17:08.283Z,73.20
2022-08-11T02:20:09.623Z,73.10
2022-08-11T02:23:05.902Z,73.10
2022-08-11T02:25:39.927Z,73.20
2022-08-11T02:28:19.013Z,73.20
2022-08-11T02:32:14.610Z,73.30
2022-08-11T02:34:18.797Z,73.20
2022-08-11T02:36:56.005Z,73.30
2022-08-11T02:39:30.200Z,73.30
2022-08-11T02:42:32.870Z,73.40
2022-08-11T02:45:19.065Z,73.30
2022-08-11T02:48:14.630Z,73.40
2022-08-11T02:50:50.844Z,74.00
2022-08-11T02:53:25.240Z,73.40
2022-08-11T02:55:58.814Z,73.40
2022-08-11T02:58:45.289Z,73.40
2022-08-11T03:01:19.437Z,73.40
2022-08-11T03:03:54.860Z,73.40
2022-08-11T03:06:35.610Z,73.40
2022-08-11T03:09:11.262Z,73.50
2022-08-11T03:12:16.675Z,73.40
2022-08-11T03:15:09.203Z,73.40
2022-08-11T03:17:42.868Z,73.50
2022-08-11T03:20:24.397Z,73.60
2022-08-11T03:23:19.420Z,73.50
2022-08-11T03:26:00.069Z,73.60
2022-08-11T03:28:33.301Z,73.60
2022-08-11T03:31:20.234Z,73.60
2022-08-11T03:34:07.244Z,73.60
2022-08-11T03:37:16.958Z,73.70
2022-08-11T03:39:57.884Z,73.70
2022-08-11T03:42:33.872Z,73.60
2022-08-11T03:45:13.571Z,73.60
2022-08-11T03:48:09.171Z,73.60
2022-08-11T03:51:02.971Z,73.60
2022-08-11T03:53:50.448Z,73.60
2022-08-11T03:57:00.517Z,73.60
2022-08-11T04:00:02.107Z,73.50
2022-08-11T04:02:44.806Z,73.60
2022-08-11T04:05:48.243Z,73.50
2022-08-11T04:08:57.770Z,73.50
2022-08-11T04:11:55.218Z,73.50
2022-08-11T04:15:05.810Z,73.50
2022-08-11T04:18:03.169Z,73.50
2022-08-11T04:21:07.943Z,73.80
2022-08-11T04:24:35.794Z,73.70
2022-08-11T04:27:37.351Z,73.20
2022-08-11T04:30:13.354Z,72.50
2022-08-11T04:33:19.693Z,72.00
2022-08-11T04:35:59.028Z,71.50
2022-08-11T04:38:46.381Z,70.80
2022-08-11T04:42:15.536Z,70.40
2022-08-11T04:45:27.341Z,70.00
2022-08-11T04:48:36.433Z,69.50
2022-08-11T04:51:45.660Z,69.00
2022-08-11T04:54:45.322Z,68.90
2022-08-11T04:57:39.405Z,68.60
2022-08-11T05:00:26.479Z,68.40
2022-08-11T05:03:55.930Z,67.90
2022-08-11T05:06:47.728Z,67.70
2022-08-11T05:09:27.622Z,67.50
2022-08-11T05:12:20.135Z,67.50
2022-08-11T05:15:10.115Z,67.40
2022-08-11T05:18:00.744Z,67.30
2022-08-11T05:20:48.202Z,67.20
2022-08-11T05:23:36.060Z,67.20
2022-08-11T05:26:46.150Z,67.20
2022-08-11T05:29:54.864Z,67.10
2022-08-11T05:32:42.975Z,67.20
2022-08-11T05:36:00.473Z,67.10
2022-08-11T05:38:19.308Z,67.10
2022-08-11T05:41:08.152Z,67.10
2022-08-11T05:44:20.358Z,67.00
2022-08-11T05:47:08.896Z,67.00
2022-08-11T05:49:54.816Z,66.80
2022-08-11T05:52:44.834Z,67.60
2022-08-11T05:55:34.414Z,66.80
2022-08-11T05:58:05.484Z,66.70
2022-08-11T06:00:43.457Z,66.70
2022-08-11T06:03:12.346Z,66.60
2022-08-11T06:05:44.129Z,67.30
2022-08-11T06:08:13.741Z,66.50
2022-08-11T06:10:43.494Z,66.50
2022-08-11T06:13:15.859Z,66.50
2022-08-11T06:15:51.938Z,66.40
2022-08-11T06:18:20.895Z,66.40
2022-08-11T06:20:49.963Z,66.40
2022-08-11T06:23:23.651Z,66.40
2022-08-11T06:25:52.650Z,66.30
2022-08-11T06:28:31.491Z,66.20
2022-08-11T06:31:01.988Z,66.10
2022-08-11T06:33:37.277Z,66.10
2022-08-11T06:36:11.891Z,66.10
2022-08-11T06:38:54.555Z,66.10
2022-08-11T06:41:32.058Z,66.20
2022-08-11T06:44:16.340Z,66.20
2022-08-11T06:46:47.893Z,66.10
2022-08-11T06:49:36.052Z,66.20
2022-08-11T06:52:06.924Z,66.10
2022-08-11T06:54:54.974Z,66.00
2022-08-11T06:57:40.807Z,66.00
2022-08-11T07:00:28.467Z,66.00
2022-08-11T07:03:02.086Z,66.00
2022-08-11T07:05:43.973Z,66.00
2022-08-11T07:08:51.562Z,65.90
2022-08-11T07:12:07.489Z,65.90
2022-08-11T07:14:58.258Z,65.90
2022-08-11T07:17:32.335Z,65.80
2022-08-11T07:20:20.859Z,65.80
2022-08-11T07:23:13.987Z,65.80
2022-08-11T07:26:02.023Z,65.70
2022-08-11T07:28:49.018Z,65.70
2022-08-11T07:31:23.352Z,65.70
2022-08-11T07:34:07.268Z,66.10
2022-08-11T07:36:41.472Z,65.60
2022-08-11T07:39:16.830Z,65.60
2022-08-11T07:41:47.148Z,65.60
2022-08-11T07:44:17.118Z,65.60
2022-08-11T07:47:05.846Z,65.60
2022-08-11T07:49:53.944Z,65.40
2022-08-11T07:52:30.692Z,65.50
2022-08-11T07:55:00.728Z,65.50
2022-08-11T07:58:14.667Z,65.50
2022-08-11T08:00:55.874Z,65.40
2022-08-11T08:03:54.499Z,65.40
2022-08-11T08:06:40.887Z,65.40
2022-08-11T08:09:29.291Z,65.40
2022-08-11T08:12:15.967Z,65.40
2022-08-11T08:15:01.515Z,65.40
2022-08-11T08:18:20.996Z,65.40
2022-08-11T08:20:39.752Z,65.40
2022-08-11T08:23:09.082Z,65.40
2022-08-11T08:25:41.753Z,65.40
2022-08-11T08:28:14.228Z,65.30
2022-08-11T08:30:49.834Z,65.40
2022-08-11T08:33:21.365Z,65.40
2022-08-11T08:35:54.807Z,65.40
2022-08-11T08:38:25.160Z,65.40
2022-08-11T08:40:56.434Z,65.40
2022-08-11T08:43:26.408Z,65.30
2022-08-11T08:45:58.344Z,65.30
2022-08-11T08:48:29.398Z,65.30
2022-08-11T08:51:21.953Z,65.30
2022-08-11T08:53:53.844Z,65.30
2022-08-11T08:56:29.255Z,65.30
2022-08-11T08:59:02.409Z,65.30
2022-08-11T09:01:34.404Z,65.30
2022-08-11T09:04:11.232Z,65.30
2022-08-11T09:06:42.919Z,65.90
2022-08-11T09:09:12.427Z,65.30
2022-08-11T09:11:56.829Z,65.20
2022-08-11T09:14:46.680Z,65.20
2022-08-11T09:17:15.032Z,65.20
2022-08-11T09:19:43.654Z,65.20
2022-08-11T09:22:37.693Z,65.20
2022-08-11T09:25:24.520Z,65.20
2022-08-11T09:27:56.565Z,65.20
2022-08-11T09:30:26.677Z,65.20
2022-08-11T09:32:57.924Z,65.20
2022-08-11T09:35:27.912Z,65.20
2022-08-11T09:38:14.218Z,65.20
2022-08-11T09:40:44.883Z,65.20
2022-08-11T09:43:33.933Z,65.20
2022-08-11T09:46:03.118Z,65.20
2022-08-11T09:48:36.150Z,65.20
2022-08-11T09:51:05.353Z,65.20
2022-08-11T09:53:40.550Z,65.20
2022-08-11T09:56:29.718Z,65.20
2022-08-11T09:58:59.881Z,65.20
2022-08-11T10:01:32.754Z,65.20
2022-08-11T10:04:04.554Z,65.30
2022-08-11T10:06:54.340Z,65.20
2022-08-11T10:09:25.476Z,65.10
2022-08-11T10:11:58.111Z,65.10
2022-08-11T10:14:46.619Z,65.00
2022-08-11T10:17:17.379Z,64.90
2022-08-11T10:20:04.991Z,64.80
2022-08-11T10:22:52.516Z,64.70
2022-08-11T10:25:56.525Z,64.70
2022-08-11T10:28:33.758Z,65.40
2022-08-11T10:31:38.990Z,64.70
2022-08-11T10:34:40.703Z,64.70
2022-08-11T10:37:23.192Z,64.70
2022-08-11T10:39:52.133Z,64.80
2022-08-11T10:42:57.476Z,64.50
2022-08-11T10:45:43.629Z,64.70
2022-08-11T10:48:15.499Z,64.50
2022-08-11T10:51:05.252Z,64.30
2022-08-11T10:53:51.670Z,64.30
2022-08-11T10:56:38.794Z,64.20
2022-08-11T10:59:09.976Z,64.10
2022-08-11T11:01:41.363Z,64.40
2022-08-11T11:04:14.732Z,64.10
2022-08-11T11:06:53.200Z,64.00
2022-08-11T11:09:29.938Z,63.90
2022-08-11T11:12:18.405Z,63.80
2022-08-11T11:15:06.802Z,63.70
2022-08-11T11:18:01.856Z,63.90
2022-08-11T11:20:40.012Z,63.50
2022-08-11T11:23:17.035Z,63.50
2022-08-11T11:26:11.025Z,63.40
2022-08-11T11:29:04.318Z,63.40
2022-08-11T11:31:44.853Z,63.40
2022-08-11T11:34:24.648Z,63.40
2022-08-11T11:36:58.188Z,63.30
2022-08-11T11:39:29.410Z,63.30
2022-08-11T11:42:00.553Z,63.20
2022-08-11T11:44:29.659Z,63.20
2022-08-11T11:46:58.883Z,63.00
2022-08-11T11:49:29.460Z,63.00
2022-08-11T11:52:00.811Z,63.00
2022-08-11T11:54:32.394Z,62.90
2022-08-11T11:57:21.615Z,63.00
2022-08-11T12:00:08.541Z,63.10
2022-08-11T12:02:37.380Z,63.00
2022-08-11T12:05:07.259Z,63.00
2022-08-11T12:08:04.840Z,63.00
2022-08-11T12:10:42.110Z,63.00
2022-08-11T12:13:28.204Z,63.20
2022-08-11T12:16:07.385Z,63.00
2022-08-11T12:18:49.567Z,62.80
2022-08-11T12:21:20.727Z,62.80
2022-08-11T12:24:09.062Z,62.80
2022-08-11T12:27:15.764Z,62.70
2022-08-11T12:29:49.016Z,62.70
2022-08-11T12:32:21.214Z,62.60
2022-08-11T12:34:49.588Z,62.60
2022-08-11T12:37:23.685Z,62.40
2022-08-11T12:40:48.816Z,62.30
2022-08-11T12:43:38.819Z,62.30
2022-08-11T12:46:15.225Z,62.20
2022-08-11T12:49:04.096Z,62.00
2022-08-11T12:52:08.538Z,62.10
2022-08-11T12:55:00.047Z,61.90
2022-08-11T12:57:49.249Z,61.80
2022-08-11T13:00:36.945Z,61.80
2022-08-11T13:03:25.354Z,61.70
2022-08-11T13:05:56.593Z,61.70
2022-08-11T13:08:26.007Z,61.60
2022-08-11T13:11:15.211Z,61.60
2022-08-11T13:13:55.177Z,61.50
2022-08-11T13:16:28.912Z,61.40
2022-08-11T13:18:58.731Z,61.40
2022-08-11T13:21:29.054Z,61.40
2022-08-11T13:24:00.608Z,61.40
2022-08-11T13:26:43.383Z,61.10
2022-08-11T13:29:18.603Z,61.20
2022-08-11T13:31:47.579Z,61.20
2022-08-11T13:34:17.211Z,61.20
2022-08-11T13:36:45.934Z,61.10
2022-08-11T13:39:14.583Z,61.00
2022-08-11T13:41:47.733Z,61.00
2022-08-11T13:44:23.424Z,60.90
2022-08-11T13:46:55.310Z,61.00
2022-08-11T13:49:24.090Z,60.90
2022-08-11T13:51:52.479Z,60.70
2022-08-11T13:54:24.868Z,60.70
2022-08-11T13:56:57.838Z,60.70
2022-08-11T13:59:29.869Z,60.80
2022-08-11T14:02:28.280Z,60.90
2022-08-11T14:04:55.264Z,61.00
2022-08-11T14:07:26.806Z,61.00
2022-08-11T14:09:58.415Z,60.90
2022-08-11T14:12:47.953Z,60.80
2022-08-11T14:15:20.760Z,60.80
2022-08-11T14:17:53.242Z,61.00
2022-08-11T14:20:38.037Z,60.80
2022-08-11T14:23:06.436Z,60.90
2022-08-11T14:26:00.683Z,61.40
2022-08-11T14:28:31.695Z,60.90
2022-08-11T14:31:02.755Z,61.80
2022-08-11T14:34:00.080Z,60.90
2022-08-11T14:36:23.538Z,61.10
2022-08-11T14:38:54.043Z,60.90
2022-08-11T14:42:10.513Z,61.30
2022-08-11T14:44:50.713Z,60.70
2022-08-11T14:47:24.195Z,60.50
2022-08-11T14:50:10.352Z,60.40
2022-08-11T14:52:45.643Z,60.50
2022-08-11T14:55:32.674Z,60.70
2022-08-11T14:58:02.343Z,60.70
2022-08-11T15:00:32.652Z,60.70
2022-08-11T15:03:13.530Z,60.70
2022-08-11T15:05:56.134Z,60.60
2022-08-11T15:08:42.290Z,60.70
2022-08-11T15:11:32.484Z,60.60
2022-08-11T15:14:02.200Z,60.70
2022-08-11T15:16:50.029Z,60.70
2022-08-11T15:19:21.372Z,60.80
2022-08-11T15:22:07.723Z,61.00
2022-08-11T15:24:37.016Z,60.90
2022-08-11T15:27:27.263Z,61.00
2022-08-11T15:30:20.202Z,61.10
2022-08-11T15:33:23.188Z,61.10
2022-08-11T15:36:10.142Z,61.20
2022-08-11T15:38:43.864Z,61.10
2022-08-11T15:41:32.823Z,61.20
2022-08-11T15:44:24.535Z,61.20
2022-08-11T15:47:09.638Z,61.20
2022-08-11T15:50:11.095Z,61.30
2022-08-11T15:52:33.957Z,61.50
2022-08-11T15:55:08.598Z,61.60
2022-08-11T15:57:52.128Z,61.60
2022-08-11T16:00:38.343Z,61.60
2022-08-11T16:03:25.024Z,61.80
2022-08-11T16:06:14.870Z,61.70
2022-08-11T16:08:45.808Z,61.80
2022-08-11T16:11:15.237Z,61.90
2022-08-11T16:14:01.715Z,61.80
2022-08-11T16:16:31.905Z,61.50
2022-08-11T16:19:04.827Z,61.40
2022-08-11T16:21:39.380Z,61.80
2022-08-11T16:25:58.193Z,61.70
2022-08-11T16:27:09.390Z,61.70
2022-08-11T16:29:44.390Z,61.80
2022-08-11T16:32:20.711Z,61.80
2022-08-11T16:35:12.107Z,62.00
2022-08-11T16:38:00.436Z,62.00
2022-08-11T16:40:29.683Z,62.10
2022-08-11T16:43:18.554Z,62.10
2022-08-11T16:46:10.652Z,62.10
2022-08-11T16:48:41.258Z,62.00
2022-08-11T16:51:12.489Z,61.90
2022-08-11T16:53:59.871Z,62.00
2022-08-11T16:56:38.656Z,61.80
2022-08-11T16:59:17.056Z,61.90
2022-08-11T17:01:49.801Z,62.20
2022-08-11T17:04:40.110Z,62.50
2022-08-11T17:07:42.092Z,62.50
2022-08-11T17:10:51.777Z,62.50
2022-08-11T17:13:27.190Z,62.60
2022-08-11T17:16:12.075Z,62.70
2022-08-11T17:18:46.676Z,62.70
2022-08-11T17:21:20.208Z,62.70
2022-08-11T17:23:52.051Z,62.70
2022-08-11T17:26:48.984Z,62.70
2022-08-11T17:29:20.310Z,62.80
2022-08-11T17:32:07.726Z,62.70
2022-08-11T17:34:53.755Z,62.80
2022-08-11T17:37:24.250Z,62.80
2022-08-11T17:39:53.448Z,62.90
2022-08-11T17:42:41.818Z,62.90
2022-08-11T17:45:29.481Z,62.70
2022-08-11T17:48:16.144Z,62.70
2022-08-11T17:50:44.932Z,62.70
2022-08-11T17:53:33.130Z,62.80
2022-08-11T17:56:20.356Z,62.90
2022-08-11T17:59:09.242Z,62.80
2022-08-11T18:01:39.669Z,62.80
2022-08-11T18:04:10.267Z,63.00
2022-08-11T18:06:40.581Z,63.10
2022-08-11T18:09:30.348Z,63.10
2022-08-11T18:12:17.668Z,60.90
2022-08-11T18:15:08.857Z,59.10
2022-08-11T18:17:55.747Z,60.30
2022-08-11T18:20:42.800Z,59.20
2022-08-11T18:23:45.793Z,59.80
2022-08-11T18:26:36.176Z,60.30
2022-08-11T18:29:22.914Z,60.60
2022-08-11T18:32:12.204Z,60.60
2022-08-11T18:35:11.110Z,61.30
2022-08-11T18:38:04.094Z,61.40
2022-08-11T18:40:51.231Z,62.30
2022-08-11T18:43:41.610Z,62.10
2022-08-11T18:46:30.117Z,62.50
2022-08-11T18:49:22.212Z,63.10
2022-08-11T18:52:12.384Z,63.20
2022-08-11T18:55:01.790Z,63.60
2022-08-11T18:57:54.146Z,65.00
2022-08-11T19:00:41.704Z,64.90
2022-08-11T19:03:29.813Z,66.10
2022-08-11T19:06:39.263Z,65.80
2022-08-11T19:09:28.314Z,66.20
2022-08-11T19:12:15.271Z,66.50
2022-08-11T19:15:01.338Z,67.50
2022-08-11T19:17:50.024Z,67.30
2022-08-11T19:20:38.690Z,67.80
2022-08-11T19:23:28.339Z,68.10
2022-08-11T19:26:15.537Z,68.20
2022-08-11T19:29:03.235Z,68.30
2022-08-11T19:31:49.591Z,68.20
2022-08-11T19:34:37.223Z,68.30
2022-08-11T19:37:25.601Z,68.70
2022-08-11T19:40:16.133Z,68.80
2022-08-11T19:43:03.624Z,69.10
2022-08-11T19:46:01.141Z,69.50
2022-08-11T19:48:47.285Z,70.00
2022-08-11T19:51:33.893Z,70.20
2022-08-11T19:54:20.429Z,70.50
2022-08-11T19:57:10.004Z,70.80
2022-08-11T19:59:57.373Z,69.10
2022-08-11T20:02:42.753Z,68.60
2022-08-11T20:05:28.709Z,68.30
2022-08-11T20:08:16.632Z,68.10
2022-08-11T20:11:05.708Z,68.10
2022-08-11T20:13:54.101Z,68.00
2022-08-11T20:16:42.185Z,68.00
2022-08-11T20:19:56.467Z,68.00
2022-08-11T20:22:35.960Z,68.30
2022-08-11T20:25:23.016Z,68.70
2022-08-11T20:28:10.531Z,68.80
2022-08-11T20:30:58.938Z,69.40
2022-08-11T20:33:44.646Z,69.50
2022-08-11T20:36:31.556Z,69.40
2022-08-11T20:39:18.838Z,69.70
2022-08-11T20:42:06.260Z,69.80
2022-08-11T20:44:53.367Z,69.80
2022-08-11T20:47:56.563Z,69.70
2022-08-11T20:50:47.346Z,69.60
2022-08-11T20:53:38.982Z,69.60
2022-08-11T20:59:38.455Z,69.70
2022-08-11T21:02:36.473Z,69.70
2022-08-11T21:06:08.163Z,69.60
2022-08-11T21:08:30.765Z,70.30
2022-08-11T21:11:27.703Z,69.70
2022-08-11T21:14:14.351Z,70.40
2022-08-11T21:17:00.734Z,70.20
2022-08-11T21:20:11.834Z,70.10
2022-08-11T21:23:06.265Z,70.60
2022-08-11T21:25:59.436Z,70.30
2022-08-11T21:28:47.377Z,70.20
2022-08-11T21:31:34.298Z,70.30
2022-08-11T21:34:20.848Z,70.20
2022-08-11T21:37:07.865Z,70.10
2022-08-11T21:39:56.427Z,70.20
2022-08-11T21:42:44.318Z,70.30
2022-08-11T21:45:33.151Z,70.20
2022-08-11T21:48:19.508Z,70.20
2022-08-11T21:51:05.019Z,70.30
2022-08-11T21:53:51.929Z,70.40
2022-08-11T21:56:40.480Z,70.30
2022-08-11T21:59:26.313Z,70.50
2022-08-11T22:02:13.223Z,70.30
2022-08-11T22:04:58.716Z,70.60
2022-08-11T22:07:44.388Z,70.50
2022-08-11T22:10:41.440Z,70.40
2022-08-11T22:13:31.290Z,71.00
2022-08-11T22:16:17.260Z,71.20
2022-08-11T22:19:04.721Z,71.00
2022-08-11T22:22:01.665Z,71.20
2022-08-11T22:24:51.842Z,71.30
2022-08-11T22:27:38.273Z,71.30
2022-08-11T22:30:28.475Z,71.10
2022-08-11T22:33:17.458Z,71.10
2022-08-11T22:36:12.651Z,71.40
2022-08-11T22:39:01.170Z,71.10
2022-08-11T22:41:47.342Z,71.30
2022-08-11T22:44:32.797Z,71.10
2022-08-11T22:47:21.393Z,71.20
2022-08-11T22:50:11.238Z,71.10
2022-08-11T22:52:57.846Z,71.30
2022-08-11T22:55:44.528Z,71.60
2022-08-11T22:58:32.728Z,71.90
2022-08-11T23:01:18.882Z,72.00
2022-08-11T23:04:06.405Z,72.10
2022-08-11T23:06:53.401Z,72.10
2022-08-11T23:09:38.916Z,72.20
2022-08-11T23:12:25.390Z,72.20
2022-08-11T23:15:11.474Z,72.40
2022-08-11T23:17:57.717Z,72.40
2022-08-11T23:20:45.868Z,72.40
2022-08-11T23:23:32.316Z,72.40
2022-08-11T23:26:18.110Z,72.10
2022-08-11T23:29:06.061Z,72.10
2022-08-11T23:31:54.519Z,72.30
2022-08-11T23:35:04.497Z,72.50
2022-08-11T23:37:50.219Z,72.70
2022-08-11T23:40:35.875Z,72.70
2022-08-11T23:43:22.321Z,72.80
2022-08-11T23:46:07.895Z,72.90
2022-08-11T23:48:56.163Z,72.90
2022-08-11T23:51:42.012Z,73.00
2022-08-11T23:54:36.493Z,73.10
2022-08-11T23:57:23.735Z,73.10
